sensor_id;sensor_type;location;lat;lon;timestamp;pressure;altitude;pressure_sealevel;temperature;humidity
68941;BME280;55982;51.476;7.552;2023-07-08T00:01:12;99934.81;;;19.94;100.00
68941;BME280;55982;51.476;7.552;2023-07-08T00:03:38;99933.59;;;19.98;100.00
68941;BME280;55982;51.476;7.552;2023-07-08T00:06:04;99932.63;;;20.12;100.00
68941;BME280;55982;51.476;7.552;2023-07-08T00:08:29;99925.84;;;20.07;100.00
68941;BME280;55982;51.476;7.552;2023-07-08T00:10:55;99926.50;;;20.11;100.00
68941;BME280;55982;51.476;7.552;2023-07-08T00:13:21;99931.59;;;20.14;100.00
68941;BME280;55982;51.476;7.552;2023-07-08T00:15:46;99922.00;;;20.12;100.00
68941;BME280;55982;51.476;7.552;2023-07-08T00:18:13;99923.50;;;20.16;100.00
68941;BME280;55982;51.476;7.552;2023-07-08T00:20:42;99924.34;;;20.16;100.00
68941;BME280;55982;51.476;7.552;2023-07-08T00:23:09;99916.09;;;20.21;100.00
68941;BME280;55982;51.476;7.552;2023-07-08T00:25:35;99914.19;;;20.23;100.00
68941;BME280;55982;51.476;7.552;2023-07-08T00:28:00;99921.00;;;20.27;100.00
68941;BME280;55982;51.476;7.552;2023-07-08T00:30:30;99912.47;;;20.34;100.00
68941;BME280;55982;51.476;7.552;2023-07-08T00:32:57;99906.59;;;20.42;100.00
68941;BME280;55982;51.476;7.552;2023-07-08T00:35:38;99915.59;;;20.52;100.00
68941;BME280;55982;51.476;7.552;2023-07-08T00:38:25;99902.94;;;20.55;100.00
68941;BME280;55982;51.476;7.552;2023-07-08T00:41:06;99910.06;;;20.55;100.00
68941;BME280;55982;51.476;7.552;2023-07-08T00:43:38;99913.66;;;20.54;100.00
68941;BME280;55982;51.476;7.552;2023-07-08T00:46:17;99908.34;;;20.54;100.00
68941;BME280;55982;51.476;7.552;2023-07-08T00:48:44;99917.06;;;20.56;100.00
68941;BME280;55982;51.476;7.552;2023-07-08T00:51:11;99911.75;;;20.56;100.00
68941;BME280;55982;51.476;7.552;2023-07-08T00:53:37;99909.06;;;20.68;100.00
68941;BME280;55982;51.476;7.552;2023-07-08T00:56:09;99909.19;;;20.67;100.00
68941;BME280;55982;51.476;7.552;2023-07-08T00:58:44;99918.09;;;20.66;100.00
68941;BME280;55982;51.476;7.552;2023-07-08T01:01:11;99911.09;;;20.65;100.00
68941;BME280;55982;51.476;7.552;2023-07-08T01:03:45;99906.97;;;20.61;100.00
68941;BME280;55982;51.476;7.552;2023-07-08T01:06:14;99906.03;;;20.49;100.00
68941;BME280;55982;51.476;7.552;2023-07-08T01:08:40;99902.03;;;20.44;100.00
68941;BME280;55982;51.476;7.552;2023-07-08T01:11:06;99898.84;;;20.39;100.00
68941;BME280;55982;51.476;7.552;2023-07-08T01:13:35;99892.69;;;20.26;100.00
68941;BME280;55982;51.476;7.552;2023-07-08T01:16:06;99882.50;;;20.20;100.00
68941;BME280;55982;51.476;7.552;2023-07-08T01:18:32;99883.13;;;20.11;100.00
68941;BME280;55982;51.476;7.552;2023-07-08T01:21:29;99886.00;;;20.07;100.00
68941;BME280;55982;51.476;7.552;2023-07-08T01:23:54;99876.78;;;20.00;100.00
68941;BME280;55982;51.476;7.552;2023-07-08T01:26:23;99881.88;;;20.03;100.00
68941;BME280;55982;51.476;7.552;2023-07-08T01:28:50;99873.63;;;19.95;100.00
68941;BME280;55982;51.476;7.552;2023-07-08T01:31:16;99876.16;;;19.97;100.00
68941;BME280;55982;51.476;7.552;2023-07-08T01:33:41;99874.44;;;19.96;100.00
68941;BME280;55982;51.476;7.552;2023-07-08T01:36:10;99866.06;;;19.89;100.00
68941;BME280;55982;51.476;7.552;2023-07-08T01:38:36;99861.50;;;19.79;100.00
68941;BME280;55982;51.476;7.552;2023-07-08T01:41:03;99864.06;;;19.80;100.00
68941;BME280;55982;51.476;7.552;2023-07-08T01:43:28;99861.50;;;19.79;100.00
68941;BME280;55982;51.476;7.552;2023-07-08T01:45:54;99862.59;;;19.76;100.00
68941;BME280;55982;51.476;7.552;2023-07-08T01:48:22;99855.56;;;19.75;100.00
68941;BME280;55982;51.476;7.552;2023-07-08T01:51:03;99856.19;;;19.79;100.00
68941;BME280;55982;51.476;7.552;2023-07-08T01:53:33;99859.19;;;19.74;100.00
68941;BME280;55982;51.476;7.552;2023-07-08T01:55:58;99859.06;;;19.63;100.00
68941;BME280;55982;51.476;7.552;2023-07-08T01:58:24;99857.06;;;19.54;100.00
68941;BME280;55982;51.476;7.552;2023-07-08T02:00:50;99851.75;;;19.54;100.00
68941;BME280;55982;51.476;7.552;2023-07-08T02:03:16;99845.16;;;19.47;100.00
68941;BME280;55982;51.476;7.552;2023-07-08T02:05:41;99840.63;;;19.49;100.00
68941;BME280;55982;51.476;7.552;2023-07-08T02:08:07;99843.47;;;19.46;100.00
68941;BME280;55982;51.476;7.552;2023-07-08T02:10:35;99836.53;;;19.31;100.00
68941;BME280;55982;51.476;7.552;2023-07-08T02:13:00;99841.72;;;19.20;100.00
68941;BME280;55982;51.476;7.552;2023-07-08T02:15:26;99836.81;;;19.14;100.00
68941;BME280;55982;51.476;7.552;2023-07-08T02:17:51;99839.69;;;19.11;100.00
68941;BME280;55982;51.476;7.552;2023-07-08T02:20:17;99837.47;;;19.05;100.00
68941;BME280;55982;51.476;7.552;2023-07-08T02:22:43;99837.47;;;19.05;100.00
68941;BME280;55982;51.476;7.552;2023-07-08T02:25:08;99823.03;;;19.09;100.00
68941;BME280;55982;51.476;7.552;2023-07-08T02:27:37;99835.34;;;19.10;100.00
68941;BME280;55982;51.476;7.552;2023-07-08T02:30:04;99831.00;;;19.09;100.00
68941;BME280;55982;51.476;7.552;2023-07-08T02:32:29;99827.50;;;19.08;100.00
68941;BME280;55982;51.476;7.552;2023-07-08T02:34:54;99821.56;;;19.05;100.00
68941;BME280;55982;51.476;7.552;2023-07-08T02:37:20;99827.03;;;19.02;100.00
68941;BME280;55982;51.476;7.552;2023-07-08T02:39:45;99829.91;;;18.99;100.00
68941;BME280;55982;51.476;7.552;2023-07-08T02:42:11;99831.06;;;18.95;100.00
68941;BME280;55982;51.476;7.552;2023-07-08T02:44:36;99838.50;;;18.90;100.00
68941;BME280;55982;51.476;7.552;2023-07-08T02:47:01;99835.28;;;18.85;100.00
68941;BME280;55982;51.476;7.552;2023-07-08T02:49:27;99822.53;;;18.77;100.00
68941;BME280;55982;51.476;7.552;2023-07-08T02:51:52;99830.06;;;18.71;100.00
68941;BME280;55982;51.476;7.552;2023-07-08T02:54:18;99824.19;;;18.66;100.00
68941;BME280;55982;51.476;7.552;2023-07-08T02:56:43;99823.38;;;18.65;100.00
68941;BME280;55982;51.476;7.552;2023-07-08T02:59:09;99826.97;;;18.64;100.00
68941;BME280;55982;51.476;7.552;2023-07-08T03:01:34;99830.66;;;18.62;100.00
68941;BME280;55982;51.476;7.552;2023-07-08T03:04:10;99832.00;;;18.55;100.00
68941;BME280;55982;51.476;7.552;2023-07-08T03:06:43;99839.59;;;18.47;100.00
68941;BME280;55982;51.476;7.552;2023-07-08T03:09:10;99827.88;;;18.37;100.00
68941;BME280;55982;51.476;7.552;2023-07-08T03:11:37;99828.69;;;18.24;100.00
68941;BME280;55982;51.476;7.552;2023-07-08T03:14:02;99834.38;;;18.18;100.00
68941;BME280;55982;51.476;7.552;2023-07-08T03:16:28;99831.34;;;18.10;100.00
68941;BME280;55982;51.476;7.552;2023-07-08T03:18:53;99829.28;;;18.01;100.00
68941;BME280;55982;51.476;7.552;2023-07-08T03:21:19;99834.00;;;17.96;100.00
68941;BME280;55982;51.476;7.552;2023-07-08T03:23:47;99833.19;;;17.96;100.00
68941;BME280;55982;51.476;7.552;2023-07-08T03:26:15;99823.03;;;18.02;100.00
68941;BME280;55982;51.476;7.552;2023-07-08T03:28:41;99822.66;;;18.08;100.00
68941;BME280;55982;51.476;7.552;2023-07-08T03:31:08;99820.53;;;18.13;100.00
68941;BME280;55982;51.476;7.552;2023-07-08T03:33:34;99817.44;;;18.21;100.00
68941;BME280;55982;51.476;7.552;2023-07-08T03:36:00;99813.81;;;18.22;100.00
68941;BME280;55982;51.476;7.552;2023-07-08T03:38:26;99817.22;;;18.24;100.00
68941;BME280;55982;51.476;7.552;2023-07-08T03:40:51;99821.09;;;18.33;100.00
68941;BME280;55982;51.476;7.552;2023-07-08T03:43:17;99817.69;;;18.31;100.00
68941;BME280;55982;51.476;7.552;2023-07-08T03:45:43;99822.06;;;18.17;100.00
68941;BME280;55982;51.476;7.552;2023-07-08T03:48:10;99820.38;;;18.16;100.00
68941;BME280;55982;51.476;7.552;2023-07-08T03:50:36;99816.97;;;18.14;100.00
68941;BME280;55982;51.476;7.552;2023-07-08T03:53:01;99821.78;;;18.22;100.00
68941;BME280;55982;51.476;7.552;2023-07-08T03:55:27;99820.88;;;18.36;100.00
68941;BME280;55982;51.476;7.552;2023-07-08T03:57:53;99832.25;;;18.64;100.00
68941;BME280;55982;51.476;7.552;2023-07-08T04:00:19;99834.88;;;18.91;100.00
68941;BME280;55982;51.476;7.552;2023-07-08T04:02:45;99826.44;;;19.11;100.00
68941;BME280;55982;51.476;7.552;2023-07-08T04:05:19;99834.09;;;19.28;100.00
68941;BME280;55982;51.476;7.552;2023-07-08T04:07:45;99831.59;;;19.39;100.00
68941;BME280;55982;51.476;7.552;2023-07-08T04:10:11;99832.03;;;19.46;100.00
68941;BME280;55982;51.476;7.552;2023-07-08T04:12:37;99836.06;;;19.51;100.00
68941;BME280;55982;51.476;7.552;2023-07-08T04:15:03;99834.78;;;19.57;100.00
68941;BME280;55982;51.476;7.552;2023-07-08T04:17:29;99834.13;;;19.66;100.00
68941;BME280;55982;51.476;7.552;2023-07-08T04:19:55;99836.47;;;19.70;100.00
68941;BME280;55982;51.476;7.552;2023-07-08T04:22:22;99836.47;;;19.70;100.00
68941;BME280;55982;51.476;7.552;2023-07-08T04:24:47;99836.03;;;19.76;100.00
68941;BME280;55982;51.476;7.552;2023-07-08T04:27:14;99837.53;;;19.80;100.00
68941;BME280;55982;51.476;7.552;2023-07-08T04:29:40;99844.09;;;19.87;100.00
68941;BME280;55982;51.476;7.552;2023-07-08T04:32:06;99851.31;;;19.85;100.00
68941;BME280;55982;51.476;7.552;2023-07-08T04:34:31;99849.59;;;19.84;100.00
68941;BME280;55982;51.476;7.552;2023-07-08T04:36:57;99847.06;;;19.83;100.00
68941;BME280;55982;51.476;7.552;2023-07-08T04:39:22;99848.47;;;19.76;100.00
68941;BME280;55982;51.476;7.552;2023-07-08T04:41:47;99846.00;;;19.60;100.00
68941;BME280;55982;51.476;7.552;2023-07-08T04:44:13;99849.41;;;19.37;100.00
68941;BME280;55982;51.476;7.552;2023-07-08T04:46:51;99854.81;;;18.96;100.00
68941;BME280;55982;51.476;7.552;2023-07-08T04:49:19;99852.00;;;18.46;100.00
68941;BME280;55982;51.476;7.552;2023-07-08T04:51:45;99855.56;;;18.18;100.00
68941;BME280;55982;51.476;7.552;2023-07-08T04:54:11;99850.63;;;18.12;100.00
68941;BME280;55982;51.476;7.552;2023-07-08T04:56:45;99850.44;;;18.15;100.00
68941;BME280;55982;51.476;7.552;2023-07-08T04:59:14;99847.78;;;18.15;100.00
68941;BME280;55982;51.476;7.552;2023-07-08T05:01:40;99857.91;;;18.23;100.00
68941;BME280;55982;51.476;7.552;2023-07-08T05:04:06;99856.19;;;18.22;100.00
68941;BME280;55982;51.476;7.552;2023-07-08T05:06:33;99850.94;;;18.35;100.00
68941;BME280;55982;51.476;7.552;2023-07-08T05:08:59;99857.56;;;18.42;100.00
68941;BME280;55982;51.476;7.552;2023-07-08T05:11:25;99861.16;;;18.41;100.00
68941;BME280;55982;51.476;7.552;2023-07-08T05:13:50;99853.41;;;18.52;100.00
68941;BME280;55982;51.476;7.552;2023-07-08T05:16:16;99856.47;;;18.72;100.00
68941;BME280;55982;51.476;7.552;2023-07-08T05:18:41;99864.03;;;18.91;100.00
68941;BME280;55982;51.476;7.552;2023-07-08T05:21:07;99857.19;;;19.01;100.00
68941;BME280;55982;51.476;7.552;2023-07-08T05:23:33;99857.19;;;19.01;100.00
68941;BME280;55982;51.476;7.552;2023-07-08T05:26:00;99861.78;;;18.85;100.00
68941;BME280;55982;51.476;7.552;2023-07-08T05:28:26;99859.47;;;18.93;100.00
68941;BME280;55982;51.476;7.552;2023-07-08T05:30:55;99850.38;;;18.97;100.00
68941;BME280;55982;51.476;7.552;2023-07-08T05:33:22;99855.94;;;19.19;100.00
68941;BME280;55982;51.476;7.552;2023-07-08T05:35:47;99857.06;;;19.54;100.00
68941;BME280;55982;51.476;7.552;2023-07-08T05:38:12;99856.63;;;19.60;100.00
68941;BME280;55982;51.476;7.552;2023-07-08T05:40:38;99863.41;;;19.89;100.00
68941;BME280;55982;51.476;7.552;2023-07-08T05:43:03;99855.50;;;20.26;100.00
68941;BME280;55982;51.476;7.552;2023-07-08T05:45:28;99852.03;;;20.72;100.00
68941;BME280;55982;51.476;7.552;2023-07-08T05:47:54;99856.22;;;21.11;100.00
68941;BME280;55982;51.476;7.552;2023-07-08T05:50:19;99862.13;;;21.49;100.00
68941;BME280;55982;51.476;7.552;2023-07-08T05:52:44;99847.88;;;21.72;100.00
68941;BME280;55982;51.476;7.552;2023-07-08T05:55:10;99856.00;;;21.93;100.00
68941;BME280;55982;51.476;7.552;2023-07-08T05:57:35;99850.06;;;22.12;100.00
68941;BME280;55982;51.476;7.552;2023-07-08T06:00:01;99859.47;;;22.27;100.00
68941;BME280;55982;51.476;7.552;2023-07-08T06:02:26;99859.19;;;22.52;100.00
68941;BME280;55982;51.476;7.552;2023-07-08T06:04:52;99860.63;;;22.67;96.30
68941;BME280;55982;51.476;7.552;2023-07-08T06:07:17;99858.41;;;22.83;100.00
68941;BME280;55982;51.476;7.552;2023-07-08T06:09:43;99852.06;;;22.95;100.00
68941;BME280;55982;51.476;7.552;2023-07-08T06:12:08;99851.28;;;23.04;93.64
68941;BME280;55982;51.476;7.552;2023-07-08T06:14:33;99847.19;;;23.21;91.15
68941;BME280;55982;51.476;7.552;2023-07-08T06:16:59;99843.19;;;23.26;87.88
68941;BME280;55982;51.476;7.552;2023-07-08T06:19:24;99853.28;;;23.43;90.82
68941;BME280;55982;51.476;7.552;2023-07-08T06:21:50;99852.94;;;23.57;87.72
68941;BME280;55982;51.476;7.552;2023-07-08T06:24:15;99858.31;;;23.88;87.88
68941;BME280;55982;51.476;7.552;2023-07-08T06:26:40;99861.53;;;24.12;90.14
68941;BME280;55982;51.476;7.552;2023-07-08T06:29:06;99854.13;;;24.25;90.46
68941;BME280;55982;51.476;7.552;2023-07-08T06:31:31;99856.28;;;24.50;88.69
68941;BME280;55982;51.476;7.552;2023-07-08T06:33:57;99849.88;;;24.72;85.84
68941;BME280;55982;51.476;7.552;2023-07-08T06:36:22;99845.66;;;24.98;86.04
68941;BME280;55982;51.476;7.552;2023-07-08T06:38:48;99854.53;;;25.27;90.53
68941;BME280;55982;51.476;7.552;2023-07-08T06:41:13;99845.38;;;25.49;83.52
68941;BME280;55982;51.476;7.552;2023-07-08T06:43:39;99848.94;;;25.76;79.10
68941;BME280;55982;51.476;7.552;2023-07-08T06:46:04;99849.91;;;25.85;76.09
68941;BME280;55982;51.476;7.552;2023-07-08T06:48:31;99847.50;;;25.91;73.72
68941;BME280;55982;51.476;7.552;2023-07-08T06:50:57;99851.13;;;26.00;73.55
68941;BME280;55982;51.476;7.552;2023-07-08T06:53:23;99855.50;;;26.28;71.92
68941;BME280;55982;51.476;7.552;2023-07-08T06:55:49;99861.38;;;26.68;70.57
68941;BME280;55982;51.476;7.552;2023-07-08T06:58:14;99854.34;;;27.02;72.72
68941;BME280;55982;51.476;7.552;2023-07-08T07:00:44;99852.25;;;27.32;72.51
68941;BME280;55982;51.476;7.552;2023-07-08T07:03:10;99863.63;;;27.26;67.20
68941;BME280;55982;51.476;7.552;2023-07-08T07:05:36;99857.88;;;27.64;70.36
68941;BME280;55982;51.476;7.552;2023-07-08T07:08:04;99856.72;;;27.66;65.50
68941;BME280;55982;51.476;7.552;2023-07-08T07:10:30;99852.22;;;27.75;65.52
68941;BME280;55982;51.476;7.552;2023-07-08T07:12:55;99852.81;;;28.12;63.33
68941;BME280;55982;51.476;7.552;2023-07-08T07:15:21;99854.25;;;28.40;69.48
68941;BME280;55982;51.476;7.552;2023-07-08T07:17:46;99858.75;;;28.89;64.05
68941;BME280;55982;51.476;7.552;2023-07-08T07:20:12;99850.88;;;28.96;62.86
68941;BME280;55982;51.476;7.552;2023-07-08T07:22:37;99859.47;;;29.00;59.95
68941;BME280;55982;51.476;7.552;2023-07-08T07:25:03;99851.94;;;29.27;64.66
68941;BME280;55982;51.476;7.552;2023-07-08T07:27:29;99851.41;;;29.56;61.60
68941;BME280;55982;51.476;7.552;2023-07-08T07:29:55;99854.34;;;30.01;63.67
68941;BME280;55982;51.476;7.552;2023-07-08T07:32:23;99850.16;;;29.99;60.08
68941;BME280;55982;51.476;7.552;2023-07-08T07:34:49;99848.38;;;29.43;62.74
68941;BME280;55982;51.476;7.552;2023-07-08T07:37:17;99853.75;;;29.51;58.23
68941;BME280;55982;51.476;7.552;2023-07-08T07:39:43;99851.03;;;29.91;57.77
68941;BME280;55982;51.476;7.552;2023-07-08T07:42:09;99863.56;;;30.31;56.96
68941;BME280;55982;51.476;7.552;2023-07-08T07:44:35;99860.47;;;29.87;55.13
68941;BME280;55982;51.476;7.552;2023-07-08T07:47:02;99866.72;;;30.26;53.42
68941;BME280;55982;51.476;7.552;2023-07-08T07:49:27;99865.97;;;30.10;57.04
68941;BME280;55982;51.476;7.552;2023-07-08T07:51:52;99870.88;;;30.84;55.88
68941;BME280;55982;51.476;7.552;2023-07-08T07:54:18;99867.88;;;31.24;53.98
68941;BME280;55982;51.476;7.552;2023-07-08T07:56:43;99864.44;;;31.30;53.17
68941;BME280;55982;51.476;7.552;2023-07-08T07:59:09;99863.31;;;31.47;49.99
68941;BME280;55982;51.476;7.552;2023-07-08T08:01:35;99870.75;;;31.45;52.04
68941;BME280;55982;51.476;7.552;2023-07-08T08:04:00;99865.28;;;32.19;55.59
68941;BME280;55982;51.476;7.552;2023-07-08T08:06:25;99866.44;;;31.88;53.89
68941;BME280;55982;51.476;7.552;2023-07-08T08:08:51;99873.84;;;32.37;51.79
68941;BME280;55982;51.476;7.552;2023-07-08T08:11:16;99867.78;;;31.92;53.94
68941;BME280;55982;51.476;7.552;2023-07-08T08:13:42;99870.31;;;32.52;53.82
68941;BME280;55982;51.476;7.552;2023-07-08T08:16:07;99862.28;;;31.85;54.22
68941;BME280;55982;51.476;7.552;2023-07-08T08:18:33;99873.28;;;32.57;55.34
68941;BME280;55982;51.476;7.552;2023-07-08T08:20:58;99873.53;;;33.54;59.28
68941;BME280;55982;51.476;7.552;2023-07-08T08:23:24;99877.50;;;33.37;55.86
68941;BME280;55982;51.476;7.552;2023-07-08T08:25:52;99877.94;;;33.89;48.91
68941;BME280;55982;51.476;7.552;2023-07-08T08:28:18;99881.56;;;34.31;44.06
68941;BME280;55982;51.476;7.552;2023-07-08T08:30:47;99878.03;;;34.02;46.48
68941;BME280;55982;51.476;7.552;2023-07-08T08:33:13;99881.25;;;33.85;44.12
68941;BME280;55982;51.476;7.552;2023-07-08T08:35:38;99877.78;;;34.25;40.91
68941;BME280;55982;51.476;7.552;2023-07-08T08:38:05;99874.84;;;34.27;41.33
68941;BME280;55982;51.476;7.552;2023-07-08T08:40:31;99881.16;;;34.34;42.78
68941;BME280;55982;51.476;7.552;2023-07-08T08:43:00;99882.91;;;35.08;45.75
68941;BME280;55982;51.476;7.552;2023-07-08T08:45:27;99884.28;;;33.96;40.69
68941;BME280;55982;51.476;7.552;2023-07-08T08:47:59;99889.31;;;34.34;39.63
68941;BME280;55982;51.476;7.552;2023-07-08T08:52:51;99881.31;;;32.35;41.59
68941;BME280;55982;51.476;7.552;2023-07-08T08:55:21;99889.53;;;33.49;41.60
68941;BME280;55982;51.476;7.552;2023-07-08T09:00:55;99888.97;;;34.97;39.07
68941;BME280;55982;51.476;7.552;2023-07-08T09:06:10;99887.97;;;35.11;43.33
68941;BME280;55982;51.476;7.552;2023-07-08T09:08:36;99886.94;;;35.25;37.95
68941;BME280;55982;51.476;7.552;2023-07-08T09:13:50;99885.63;;;36.39;37.56
68941;BME280;55982;51.476;7.552;2023-07-08T09:16:51;99889.09;;;35.56;37.73
68941;BME280;55982;51.476;7.552;2023-07-08T09:19:32;99890.75;;;35.76;37.37
68941;BME280;55982;51.476;7.552;2023-07-08T09:24:48;99882.97;;;36.70;39.87
68941;BME280;55982;51.476;7.552;2023-07-08T09:27:14;99884.75;;;36.45;37.55
68941;BME280;55982;51.476;7.552;2023-07-08T09:29:40;99878.63;;;35.46;36.18
68941;BME280;55982;51.476;7.552;2023-07-08T09:32:14;99886.97;;;35.51;36.61
68941;BME280;55982;51.476;7.552;2023-07-08T09:34:44;99880.28;;;35.60;38.93
68941;BME280;55982;51.476;7.552;2023-07-08T09:37:31;99880.41;;;36.18;37.43
68941;BME280;55982;51.476;7.552;2023-07-08T09:39:58;99890.44;;;36.94;36.23
68941;BME280;55982;51.476;7.552;2023-07-08T09:42:30;99889.19;;;37.52;36.87
68941;BME280;55982;51.476;7.552;2023-07-08T09:45:10;99887.44;;;37.02;36.84
68941;BME280;55982;51.476;7.552;2023-07-08T09:47:37;99883.75;;;37.21;34.89
68941;BME280;55982;51.476;7.552;2023-07-08T09:50:23;99881.59;;;38.58;34.42
68941;BME280;55982;51.476;7.552;2023-07-08T09:52:51;99886.81;;;38.96;33.59
68941;BME280;55982;51.476;7.552;2023-07-08T09:55:17;99891.28;;;39.08;35.49
68941;BME280;55982;51.476;7.552;2023-07-08T09:57:44;99890.06;;;37.46;34.09
68941;BME280;55982;51.476;7.552;2023-07-08T10:00:14;99884.38;;;38.22;33.57
68941;BME280;55982;51.476;7.552;2023-07-08T10:02:46;99883.91;;;36.51;33.86
68941;BME280;55982;51.476;7.552;2023-07-08T10:05:22;99884.59;;;36.40;37.41
68941;BME280;55982;51.476;7.552;2023-07-08T10:07:52;99890.56;;;37.37;32.35
68941;BME280;55982;51.476;7.552;2023-07-08T10:10:25;99895.75;;;38.55;31.84
68941;BME280;55982;51.476;7.552;2023-07-08T10:15:42;99886.81;;;37.38;31.25
68941;BME280;55982;51.476;7.552;2023-07-08T10:18:14;99888.88;;;37.42;33.62
68941;BME280;55982;51.476;7.552;2023-07-08T10:26:34;99885.19;;;39.06;31.30
68941;BME280;55982;51.476;7.552;2023-07-08T10:32:16;99883.84;;;38.97;29.27
68941;BME280;55982;51.476;7.552;2023-07-08T10:40:43;99882.09;;;38.37;29.62
68941;BME280;55982;51.476;7.552;2023-07-08T10:46:26;99875.41;;;38.99;29.32
68941;BME280;55982;51.476;7.552;2023-07-08T10:49:00;99877.03;;;38.88;32.06
68941;BME280;55982;51.476;7.552;2023-07-08T10:51:47;99878.81;;;39.77;30.39
68941;BME280;55982;51.476;7.552;2023-07-08T10:54:45;99869.50;;;39.55;29.19
68941;BME280;55982;51.476;7.552;2023-07-08T10:57:41;99865.75;;;39.38;28.78
68941;BME280;55982;51.476;7.552;2023-07-08T11:03:31;99860.94;;;39.63;32.30
68941;BME280;55982;51.476;7.552;2023-07-08T11:06:22;99862.00;;;39.62;32.51
68941;BME280;55982;51.476;7.552;2023-07-08T11:08:57;99856.16;;;39.70;28.97
68941;BME280;55982;51.476;7.552;2023-07-08T11:14:04;99855.78;;;40.24;28.73
68941;BME280;55982;51.476;7.552;2023-07-08T11:16:45;99856.16;;;40.16;28.44
68941;BME280;55982;51.476;7.552;2023-07-08T11:19:19;99849.22;;;39.33;28.90
68941;BME280;55982;51.476;7.552;2023-07-08T11:21:51;99842.09;;;38.72;28.45
68941;BME280;55982;51.476;7.552;2023-07-08T11:24:28;99848.75;;;40.28;28.43
68941;BME280;55982;51.476;7.552;2023-07-08T11:27:00;99839.97;;;40.03;29.62
68941;BME280;55982;51.476;7.552;2023-07-08T11:29:37;99841.44;;;39.94;26.55
68941;BME280;55982;51.476;7.552;2023-07-08T11:32:05;99841.38;;;40.96;26.68
68941;BME280;55982;51.476;7.552;2023-07-08T11:34:34;99845.75;;;40.69;25.74
68941;BME280;55982;51.476;7.552;2023-07-08T11:37:02;99847.44;;;41.27;29.26
68941;BME280;55982;51.476;7.552;2023-07-08T11:40:17;99831.47;;;39.35;26.82
68941;BME280;55982;51.476;7.552;2023-07-08T11:42:35;99833.75;;;39.50;27.88
68941;BME280;55982;51.476;7.552;2023-07-08T11:45:01;99837.03;;;40.44;28.22
68941;BME280;55982;51.476;7.552;2023-07-08T11:47:37;99831.09;;;40.24;28.84
68941;BME280;55982;51.476;7.552;2023-07-08T11:50:22;99821.59;;;38.63;27.23
68941;BME280;55982;51.476;7.552;2023-07-08T11:53:02;99821.56;;;37.23;30.59
68941;BME280;55982;51.476;7.552;2023-07-08T11:58:26;99808.88;;;39.97;27.61
68941;BME280;55982;51.476;7.552;2023-07-08T12:03:31;99811.69;;;41.60;25.83
68941;BME280;55982;51.476;7.552;2023-07-08T12:05:58;99825.06;;;41.07;26.99
68941;BME280;55982;51.476;7.552;2023-07-08T12:08:33;99813.44;;;40.99;27.56
68941;BME280;55982;51.476;7.552;2023-07-08T12:10:59;99815.41;;;40.87;28.88
68941;BME280;55982;51.476;7.552;2023-07-08T12:13:25;99807.69;;;39.59;30.05
68941;BME280;55982;51.476;7.552;2023-07-08T12:15:52;99815.69;;;38.66;27.69
68941;BME280;55982;51.476;7.552;2023-07-08T12:18:32;99808.84;;;39.40;28.21
68941;BME280;55982;51.476;7.552;2023-07-08T12:21:00;99808.59;;;40.90;27.95
68941;BME280;55982;51.476;7.552;2023-07-08T12:23:29;99804.41;;;39.15;28.58
68941;BME280;55982;51.476;7.552;2023-07-08T12:25:56;99794.88;;;40.22;28.25
68941;BME280;55982;51.476;7.552;2023-07-08T12:28:23;99797.84;;;40.88;26.38
68941;BME280;55982;51.476;7.552;2023-07-08T12:30:50;99798.09;;;40.19;26.23
68941;BME280;55982;51.476;7.552;2023-07-08T12:33:32;99802.47;;;41.33;29.54
68941;BME280;55982;51.476;7.552;2023-07-08T12:36:00;99799.03;;;40.64;26.40
68941;BME280;55982;51.476;7.552;2023-07-08T12:38:31;99791.16;;;41.46;25.58
68941;BME280;55982;51.476;7.552;2023-07-08T12:40:59;99796.22;;;39.85;27.71
68941;BME280;55982;51.476;7.552;2023-07-08T12:43:25;99788.47;;;39.36;27.49
68941;BME280;55982;51.476;7.552;2023-07-08T12:45:51;99788.50;;;39.82;26.26
68941;BME280;55982;51.476;7.552;2023-07-08T12:48:16;99791.81;;;40.47;26.60
68941;BME280;55982;51.476;7.552;2023-07-08T12:50:42;99795.03;;;40.72;26.59
68941;BME280;55982;51.476;7.552;2023-07-08T12:53:07;99791.28;;;38.65;28.44
68941;BME280;55982;51.476;7.552;2023-07-08T12:55:37;99792.41;;;39.28;27.09
68941;BME280;55982;51.476;7.552;2023-07-08T12:58:04;99784.59;;;39.55;27.67
68941;BME280;55982;51.476;7.552;2023-07-08T13:00:31;99797.94;;;40.37;27.43
68941;BME280;55982;51.476;7.552;2023-07-08T13:03:05;99796.25;;;40.92;25.21
68941;BME280;55982;51.476;7.552;2023-07-08T13:05:31;99792.94;;;40.90;26.62
68941;BME280;55982;51.476;7.552;2023-07-08T13:07:57;99790.13;;;40.57;26.45
68941;BME280;55982;51.476;7.552;2023-07-08T13:10:25;99787.91;;;41.49;25.74
68941;BME280;55982;51.476;7.552;2023-07-08T13:12:54;99783.53;;;41.86;24.72
68941;BME280;55982;51.476;7.552;2023-07-08T13:15:25;99788.53;;;42.11;26.26
68941;BME280;55982;51.476;7.552;2023-07-08T13:17:52;99781.59;;;41.86;24.73
68941;BME280;55982;51.476;7.552;2023-07-08T13:20:18;99783.78;;;42.06;25.01
68941;BME280;55982;51.476;7.552;2023-07-08T13:22:54;99789.22;;;40.68;26.42
68941;BME280;55982;51.476;7.552;2023-07-08T13:25:27;99785.66;;;40.00;25.87
68941;BME280;55982;51.476;7.552;2023-07-08T13:27:59;99782.91;;;39.77;31.17
68941;BME280;55982;51.476;7.552;2023-07-08T13:30:27;99781.72;;;40.64;26.78
68941;BME280;55982;51.476;7.552;2023-07-08T13:32:55;99790.50;;;40.49;28.29
68941;BME280;55982;51.476;7.552;2023-07-08T13:35:42;99784.41;;;40.75;25.75
68941;BME280;55982;51.476;7.552;2023-07-08T13:38:22;99777.88;;;39.97;27.19
68941;BME280;55982;51.476;7.552;2023-07-08T13:40:54;99766.63;;;39.06;26.84
68941;BME280;55982;51.476;7.552;2023-07-08T13:43:29;99778.97;;;39.73;26.85
68941;BME280;55982;51.476;7.552;2023-07-08T13:45:55;99779.50;;;39.05;28.30
68941;BME280;55982;51.476;7.552;2023-07-08T13:48:28;99780.09;;;38.18;27.50